Time;durP1;ratioP1;P1;durP2;ratioP2;P2;SDS_P1;SDS_P2;PMS_P1;PMS_P2;Temp;Humidity;BMP_temperature;BMP_pressure;BME280_temperature;BME280_humidity;BME280_pressure;Samples;Min_cycle;Max_cycle;Signal;HPM_P1;HPM_P2
2021/07/05 00:00:13;;;;;;;4.13;2.42;;;;;;;16.41;93.02;98087.06;5086239;28;20016;-64
2021/07/05 00:02:40;;;;;;;7.30;2.97;;;;;;;16.42;92.84;98094.09;5084201;28;20280;-64
2021/07/05 00:05:06;;;;;;;7.10;2.28;;;;;;;16.37;93.16;98089.03;5083916;28;20028;-64
2021/07/05 00:07:32;;;;;;;7.32;2.72;;;;;;;16.38;93.28;98088.06;5083860;28;20417;-64
2021/07/05 00:09:58;;;;;;;3.33;2.60;;;;;;;16.44;92.91;98086.94;5084226;28;20316;-64
2021/07/05 00:12:23;;;;;;;8.02;2.28;;;;;;;16.42;92.90;98073.69;5086752;28;20059;-64
2021/07/05 00:14:49;;;;;;;4.53;2.30;;;;;;;16.39;92.65;98075.66;5088174;28;20122;-64
2021/07/05 00:17:15;;;;;;;6.35;1.90;;;;;;;16.33;92.57;98066.19;5089293;28;20016;-64
2021/07/05 00:19:41;;;;;;;12.52;2.55;;;;;;;16.29;92.84;98071.72;5090177;28;20364;-64
2021/07/05 00:22:07;;;;;;;5.32;2.45;;;;;;;16.21;92.99;98073.94;5091300;28;20050;-64
2021/07/05 00:24:32;;;;;;;11.15;2.30;;;;;;;16.15;92.92;98064.50;5099476;28;20020;-64
2021/07/05 00:26:58;;;;;;;10.32;2.47;;;;;;;16.10;93.03;98066.50;5103322;28;20015;-64
2021/07/05 00:29:23;;;;;;;9.50;2.65;;;;;;;16.08;93.30;98067.53;5104692;28;20083;-64
2021/07/05 00:31:49;;;;;;;6.00;2.42;;;;;;;16.02;93.14;98073.13;5103300;28;20024;-64
2021/07/05 00:34:14;;;;;;;11.07;2.40;;;;;;;16.00;93.38;98070.56;5089937;28;20023;-64
2021/07/05 00:36:40;;;;;;;8.90;2.17;;;;;;;16.00;93.27;98073.22;5090208;28;20020;-64
2021/07/05 00:39:05;;;;;;;3.80;2.20;;;;;;;15.99;93.47;98070.63;5091195;28;20031;-64
2021/07/05 00:41:31;;;;;;;7.22;2.60;;;;;;;16.00;93.33;98065.25;5090116;28;20312;-64
2021/07/05 00:43:57;;;;;;;9.93;2.60;;;;;;;16.00;93.46;98069.69;5095921;28;20015;-64
2021/07/05 00:46:24;;;;;;;10.35;2.50;;;;;;;16.02;93.51;98074.00;5089615;28;20039;-64
2021/07/05 00:48:49;;;;;;;9.43;2.60;;;;;;;16.04;93.37;98066.81;5090787;28;20027;-64
2021/07/05 00:51:16;;;;;;;6.03;2.42;;;;;;;16.04;93.00;98061.50;5089398;28;20033;-64
2021/07/05 00:53:43;;;;;;;7.63;2.40;;;;;;;16.10;93.11;98055.88;5090664;28;20027;-64
2021/07/05 00:56:09;;;;;;;4.22;2.30;;;;;;;16.06;93.17;98064.94;5089501;28;20016;-64
2021/07/05 00:58:34;;;;;;;10.13;2.70;;;;;;;16.05;93.18;98059.72;5090623;28;20040;-64
2021/07/05 01:01:00;;;;;;;7.75;2.83;;;;;;;16.04;93.41;98060.66;5089552;28;20036;-64
2021/07/05 01:03:25;;;;;;;8.88;2.92;;;;;;;16.00;93.06;98049.31;5089319;28;20076;-64
2021/07/05 01:05:51;;;;;;;7.82;2.72;;;;;;;16.06;93.42;98048.16;5089294;28;20017;-64
2021/07/05 01:08:16;;;;;;;9.20;3.05;;;;;;;16.08;93.55;98047.16;5090446;28;20023;-64
2021/07/05 01:10:42;;;;;;;7.78;2.67;;;;;;;16.11;93.67;98046.97;5089185;28;20062;-64
2021/07/05 01:13:07;;;;;;;4.63;2.28;;;;;;;16.14;93.08;98046.81;5089337;28;20031;-64
2021/07/05 01:15:33;;;;;;;7.10;2.78;;;;;;;16.24;93.03;98036.59;5086827;28;20024;-64
2021/07/05 01:18:01;;;;;;;8.70;2.63;;;;;;;16.29;92.88;98046.03;5087925;28;20207;-64
2021/07/05 01:20:30;;;;;;;7.10;2.80;;;;;;;16.34;92.76;98045.81;5101704;28;20023;-64
2021/07/05 01:22:57;;;;;;;17.05;4.25;;;;;;;16.35;92.73;98044.88;5102275;28;20008;-64
2021/07/05 01:25:25;;;;;;;4.68;2.47;;;;;;;16.31;92.72;98038.88;5095908;28;20044;-64
2021/07/05 01:27:51;;;;;;;6.22;1.92;;;;;;;16.33;92.91;98042.28;5089245;28;20024;-64
2021/07/05 01:30:19;;;;;;;4.97;2.63;;;;;;;16.37;92.90;98048.31;5090030;28;20066;-64
2021/07/05 01:32:46;;;;;;;4.97;2.60;;;;;;;16.41;92.55;98044.56;5086371;28;20027;-64
2021/07/05 01:35:12;;;;;;;3.35;2.47;;;;;;;16.45;92.38;98031.06;5087342;28;20058;-64
2021/07/05 01:37:37;;;;;;;6.15;2.60;;;;;;;16.51;92.13;98025.44;5094583;28;20016;-64
2021/07/05 01:40:05;;;;;;;6.60;2.53;;;;;;;16.47;91.73;98029.19;5103352;28;20053;-64
2021/07/05 01:42:31;;;;;;;3.45;1.90;;;;;;;16.50;91.50;98029.03;5101847;28;20016;-64
2021/07/05 01:44:56;;;;;;;8.15;2.40;;;;;;;16.53;91.55;98044.81;5103280;28;20023;-64
2021/07/05 01:47:22;;;;;;;3.60;2.10;;;;;;;16.53;91.48;98039.50;5101593;28;20307;-64
2021/07/05 01:49:47;;;;;;;5.85;2.10;;;;;;;16.54;91.70;98041.22;5102951;28;20070;-64
2021/07/05 01:52:14;;;;;;;4.82;2.45;;;;;;;16.60;91.47;98046.22;5101588;28;20028;-64
2021/07/05 01:54:40;;;;;;;6.47;2.20;;;;;;;16.66;91.36;98029.94;5103106;28;20012;-64
2021/07/05 01:57:24;;;;;;;5.30;1.83;;;;;;;16.69;90.57;98029.78;5103012;28;20024;-64
2021/07/05 01:59:50;;;;;;;3.65;2.00;;;;;;;16.83;90.24;98037.88;5106313;28;20062;-64
2021/07/05 02:02:15;;;;;;;5.30;1.95;;;;;;;16.83;90.24;98037.00;5106207;28;20020;-64
2021/07/05 02:04:40;;;;;;;4.88;2.15;;;;;;;16.78;89.76;98034.63;5106206;28;20020;-64
2021/07/05 02:07:06;;;;;;;5.28;1.90;;;;;;;16.77;89.98;98037.34;5106149;28;20061;-64
2021/07/05 02:09:31;;;;;;;4.30;1.90;;;;;;;16.79;89.45;98041.66;5106082;28;20027;-64
2021/07/05 02:11:56;;;;;;;4.30;2.00;;;;;;;16.78;89.55;98050.56;5105942;28;20047;-64
2021/07/05 02:14:22;;;;;;;6.38;1.70;;;;;;;16.85;89.60;98059.94;5105970;28;20357;-64
2021/07/05 02:16:48;;;;;;;3.30;1.60;;;;;;;16.81;89.08;98055.69;5105912;28;20028;-64
2021/07/05 02:19:13;;;;;;;3.08;1.90;;;;;;;16.82;89.39;98061.88;5098091;28;20090;-64
2021/07/05 02:21:38;;;;;;;3.42;1.80;;;;;;;16.81;89.38;98053.03;5087874;28;20025;-64
2021/07/05 02:24:04;;;;;;;4.60;2.05;;;;;;;16.86;89.02;98053.66;5088028;28;20020;-64
2021/07/05 02:26:30;;;;;;;9.57;1.90;;;;;;;16.81;89.05;98039.75;5088604;28;20249;-64
2021/07/05 02:28:56;;;;;;;4.03;1.77;;;;;;;16.84;89.44;98034.25;5091996;28;20318;-64
2021/07/05 02:31:21;;;;;;;6.32;1.90;;;;;;;16.85;89.21;98025.38;5102319;28;20066;-64
2021/07/05 02:33:47;;;;;;;4.80;2.00;;;;;;;16.83;89.37;98021.94;5100462;28;20020;-64
2021/07/05 02:36:13;;;;;;;7.40;2.22;;;;;;;16.84;89.29;98013.00;5102272;28;20016;-64
2021/07/05 02:38:39;;;;;;;7.57;2.40;;;;;;;16.86;89.35;98011.13;5088648;28;20024;-64
2021/07/05 02:41:05;;;;;;;5.07;2.38;;;;;;;16.78;89.59;98013.34;5087883;28;20052;-64
2021/07/05 02:43:30;;;;;;;5.20;2.20;;;;;;;16.80;89.76;98015.94;5097776;28;20020;-64
2021/07/05 02:45:58;;;;;;;5.70;2.13;;;;;;;16.79;89.85;98019.50;5103310;28;20311;-64
2021/07/05 02:48:26;;;;;;;4.60;2.17;;;;;;;16.75;89.69;98024.16;5104963;28;20312;-64
2021/07/05 02:50:55;;;;;;;7.05;2.13;;;;;;;16.72;89.91;98028.75;5103502;28;20020;-64
2021/07/05 02:53:20;;;;;;;4.45;2.00;;;;;;;16.72;89.95;98031.41;5087201;28;20036;-64
2021/07/05 02:55:46;;;;;;;6.70;2.10;;;;;;;16.70;90.47;98030.63;5087185;28;20080;-64
2021/07/05 02:58:12;;;;;;;5.70;1.70;;;;;;;16.75;90.07;98018.84;5100277;28;20082;-64
2021/07/05 03:00:45;;;;;;;4.78;1.95;;;;;;;16.76;90.04;98015.22;5101498;28;20020;-64
2021/07/05 03:03:11;;;;;;;10.05;2.05;;;;;;;16.75;89.75;98008.22;5100712;28;20012;-64
2021/07/05 03:05:36;;;;;;;7.05;2.30;;;;;;;16.75;88.94;98002.03;5101723;28;20015;-64
2021/07/05 03:08:02;;;;;;;8.63;1.88;;;;;;;16.63;89.65;98008.84;5099562;28;20212;-64
2021/07/05 03:10:33;;;;;;;8.35;2.28;;;;;;;16.61;90.11;98010.72;5100161;28;20051;-64
2021/07/05 03:12:58;;;;;;;12.70;1.90;;;;;;;16.56;90.41;98018.09;5101458;28;20020;-64
2021/07/05 03:15:24;;;;;;;7.05;2.53;;;;;;;16.60;89.48;98034.72;5099854;28;20027;-64
2021/07/05 03:17:50;;;;;;;10.35;2.30;;;;;;;16.57;89.99;98032.22;5094972;28;20398;-64
2021/07/05 03:20:21;;;;;;;5.82;2.20;;;;;;;16.54;89.93;98041.22;5098860;28;20030;-64
2021/07/05 03:22:49;;;;;;;8.30;1.98;;;;;;;16.58;89.88;98042.78;5099851;28;20034;-64
2021/07/05 03:25:17;;;;;;;10.07;2.10;;;;;;;16.44;89.76;98040.00;5100758;28;20026;-64
2021/07/05 03:27:42;;;;;;;3.63;1.90;;;;;;;16.46;90.01;98047.88;5099804;28;20030;-64
2021/07/05 03:30:09;;;;;;;10.32;2.40;;;;;;;16.47;90.17;98054.91;5089500;28;20044;-64
2021/07/05 03:32:36;;;;;;;9.18;2.40;;;;;;;16.51;90.07;98056.44;5095170;28;20020;-64
2021/07/05 03:35:03;;;;;;;2.85;1.67;;;;;;;16.50;89.78;98052.94;5101254;28;20136;-64
2021/07/05 03:37:29;;;;;;;5.13;2.00;;;;;;;16.48;89.88;98041.53;5099587;28;20039;-64
2021/07/05 03:39:54;;;;;;;5.15;1.67;;;;;;;16.48;89.55;98043.31;5100052;28;20024;-64
2021/07/05 03:42:20;;;;;;;5.00;2.17;;;;;;;16.40;89.71;98043.72;5099437;28;20011;-64
2021/07/05 03:44:45;;;;;;;6.47;1.92;;;;;;;16.32;89.95;98051.19;5100515;28;20016;-64
2021/07/05 03:47:11;;;;;;;9.13;2.25;;;;;;;16.38;90.02;98056.19;5100736;28;20036;-64
2021/07/05 03:49:36;;;;;;;8.32;2.47;;;;;;;16.35;90.13;98061.66;5099550;28;20015;-64
2021/07/05 03:52:02;;;;;;;9.98;2.50;;;;;;;16.34;90.33;98059.97;5099429;28;20040;-64
2021/07/05 03:54:27;;;;;;;7.65;1.90;;;;;;;16.41;90.13;98050.75;5091399;28;20012;-64
2021/07/05 03:56:53;;;;;;;6.00;1.90;;;;;;;16.31;90.15;98052.16;5088880;28;20189;-64
2021/07/05 03:59:18;;;;;;;8.77;2.20;;;;;;;16.32;90.21;98045.91;5100676;28;20065;-64
2021/07/05 04:01:43;;;;;;;7.57;2.72;;;;;;;16.27;90.35;98053.25;5100060;28;20012;-64
2021/07/05 04:04:09;;;;;;;7.18;2.58;;;;;;;16.26;90.12;98050.69;5099833;28;20058;-64
2021/07/05 04:06:34;;;;;;;6.32;2.05;;;;;;;16.29;90.36;98061.09;5098978;28;20016;-64
2021/07/05 04:09:01;;;;;;;5.38;2.13;;;;;;;16.22;90.45;98057.94;5097314;28;20027;-64
2021/07/05 04:11:26;;;;;;;3.50;2.20;;;;;;;16.32;90.41;98059.16;5084108;28;20016;-64
2021/07/05 04:13:52;;;;;;;6.47;2.42;;;;;;;16.30;89.90;98053.06;5083997;28;20021;-64
2021/07/05 04:16:17;;;;;;;7.13;2.00;;;;;;;16.30;90.27;98058.38;5083799;28;20020;-64
2021/07/05 04:18:43;;;;;;;9.40;2.05;;;;;;;16.34;90.55;98065.28;5083752;28;20088;-64
2021/07/05 04:21:09;;;;;;;8.00;2.40;;;;;;;16.33;90.10;98058.22;5083733;28;20211;-64
2021/07/05 04:23:34;;;;;;;9.35;2.40;;;;;;;16.33;89.91;98063.53;5083713;28;20016;-64
2021/07/05 04:26:02;;;;;;;9.07;2.47;;;;;;;16.30;89.87;98063.69;5083706;28;20433;-64
2021/07/05 04:28:27;;;;;;;12.55;2.17;;;;;;;16.40;89.45;98069.41;5083928;28;20192;-64
2021/07/05 04:30:53;;;;;;;4.72;2.42;;;;;;;16.34;89.59;98075.91;5083678;28;20027;-64
2021/07/05 04:33:18;;;;;;;8.27;2.10;;;;;;;16.36;89.99;98073.16;5083565;28;20020;-64
2021/07/05 04:35:44;;;;;;;5.85;2.20;;;;;;;16.37;90.11;98075.75;5083623;28;20091;-64
2021/07/05 04:38:09;;;;;;;6.45;2.40;;;;;;;16.34;90.09;98081.22;5083581;28;20126;-64
2021/07/05 04:40:38;;;;;;;6.32;2.63;;;;;;;16.33;90.29;98071.50;5083558;28;20099;-64
2021/07/05 04:43:04;;;;;;;5.00;2.20;;;;;;;16.43;89.64;98078.13;5083527;28;20012;-64
2021/07/05 04:45:30;;;;;;;5.35;2.15;;;;;;;16.41;89.81;98077.28;5083521;28;20020;-64
2021/07/05 04:47:57;;;;;;;4.80;2.13;;;;;;;16.40;89.79;98080.03;5083477;28;20346;-64
2021/07/05 04:50:23;;;;;;;9.77;3.10;;;;;;;16.35;90.08;98066.97;5083479;28;20032;-64
2021/07/05 04:52:49;;;;;;;9.85;2.17;;;;;;;16.47;89.62;98066.41;5083240;28;20036;-64
2021/07/05 04:55:19;;;;;;;5.53;2.35;;;;;;;16.32;89.96;98061.81;5083438;28;20021;-64
2021/07/05 04:57:46;;;;;;;2.95;1.92;;;;;;;16.42;90.31;98062.22;5086509;28;20105;-64
2021/07/05 05:00:27;;;;;;;8.77;2.30;;;;;;;16.46;89.32;98075.28;5087067;28;20024;-64
2021/07/05 05:02:53;;;;;;;6.03;2.20;;;;;;;16.40;90.07;98074.72;5087113;28;20264;-64
2021/07/05 05:05:20;;;;;;;3.25;1.98;;;;;;;16.42;90.15;98073.69;5087003;28;20088;-64
2021/07/05 05:07:45;;;;;;;6.43;2.22;;;;;;;16.38;90.21;98069.47;5086943;28;20020;-64
2021/07/05 05:10:13;;;;;;;12.35;2.10;;;;;;;16.35;89.97;98060.81;5086973;28;20207;-64
2021/07/05 05:12:39;;;;;;;8.68;2.35;;;;;;;16.38;90.32;98060.66;5086795;28;20027;-64
2021/07/05 05:15:06;;;;;;;6.68;2.67;;;;;;;16.43;90.30;98059.53;5086811;28;20025;-64
2021/07/05 05:17:32;;;;;;;6.95;2.67;;;;;;;16.49;89.41;98063.66;5086765;28;20024;-64
2021/07/05 05:19:57;;;;;;;6.70;2.40;;;;;;;16.47;89.41;98058.44;5086740;28;20047;-64
2021/07/05 05:22:23;;;;;;;8.90;2.10;;;;;;;16.47;89.18;98062.88;5086955;28;20017;-64
2021/07/05 05:24:48;;;;;;;4.90;1.90;;;;;;;16.41;89.67;98057.84;5086692;28;20020;-64
2021/07/05 05:27:15;;;;;;;6.75;2.15;;;;;;;16.38;89.62;98060.66;5086615;28;20017;-64
2021/07/05 05:29:41;;;;;;;4.93;1.85;;;;;;;16.44;89.49;98055.94;5086566;28;20024;-64
2021/07/05 05:32:06;;;;;;;5.60;2.00;;;;;;;16.56;89.02;98055.28;5086502;28;20223;-64
2021/07/05 05:34:32;;;;;;;4.57;1.90;;;;;;;16.51;89.50;98067.06;5086507;28;20020;-64
2021/07/05 05:36:57;;;;;;;7.50;1.88;;;;;;;16.52;89.58;98064.34;5086492;28;20241;-64
2021/07/05 05:39:23;;;;;;;9.65;2.05;;;;;;;16.54;89.78;98069.56;5086423;28;20016;-64
2021/07/05 05:41:48;;;;;;;13.23;2.05;;;;;;;16.58;89.62;98074.66;5086290;28;20020;-64
2021/07/05 05:44:14;;;;;;;5.50;2.20;;;;;;;16.57;89.27;98067.63;5086326;28;20028;-64
2021/07/05 05:46:39;;;;;;;6.75;1.90;;;;;;;16.64;89.37;98063.72;5086308;28;20020;-64
2021/07/05 05:49:06;;;;;;;7.22;2.22;;;;;;;16.67;89.47;98065.34;5086223;28;20095;-64
2021/07/05 05:51:32;;;;;;;7.57;1.80;;;;;;;16.72;89.02;98071.28;5086019;28;20044;-64
2021/07/05 05:54:06;;;;;;;7.72;1.95;;;;;;;16.71;89.12;98069.56;5086091;28;20066;-64
2021/07/05 05:56:32;;;;;;;7.32;2.25;;;;;;;16.72;88.60;98064.19;5086171;28;20319;-64
2021/07/05 05:59:05;;;;;;;9.38;2.22;;;;;;;16.80;88.44;98059.31;5086026;28;20051;-64
2021/07/05 06:01:32;;;;;;;6.07;2.03;;;;;;;16.92;88.35;98058.66;5086036;28;20220;-64
2021/07/05 06:03:58;;;;;;;9.38;1.70;;;;;;;17.00;88.07;98060.91;5086274;28;20029;-64
2021/07/05 06:06:24;;;;;;;7.93;2.10;;;;;;;16.96;87.92;98065.50;5105566;28;20386;-64
2021/07/05 06:08:50;;;;;;;6.10;3.25;;;;;;;17.00;87.79;98050.28;5103016;28;20219;-64
2021/07/05 06:11:16;;;;;;;6.65;1.98;;;;;;;16.98;87.89;98054.78;5108682;28;20027;-64
2021/07/05 06:13:41;;;;;;;7.13;2.03;;;;;;;17.00;87.58;98056.41;5106431;28;20024;-64
2021/07/05 06:16:07;;;;;;;8.55;1.80;;;;;;;17.10;87.80;98062.13;5106753;28;20051;-64
2021/07/05 06:18:32;;;;;;;9.90;2.08;;;;;;;17.10;87.77;98063.00;5106801;28;20024;-64
2021/07/05 06:20:58;;;;;;;4.43;1.70;;;;;;;17.16;87.56;98070.63;5105871;28;20212;-64
2021/07/05 06:23:27;;;;;;;4.00;1.80;;;;;;;17.11;87.42;98064.69;5105807;28;20031;-64
2021/07/05 06:26:01;;;;;;;7.95;2.15;;;;;;;17.09;87.57;98060.41;5105755;28;20031;-64
2021/07/05 06:28:29;;;;;;;4.75;1.63;;;;;;;17.10;87.58;98047.03;5105399;28;20020;-64
2021/07/05 06:30:55;;;;;;;11.75;2.33;;;;;;;17.23;87.24;98053.41;5105670;28;20027;-64
2021/07/05 06:33:22;;;;;;;4.88;2.00;;;;;;;17.33;86.91;98053.72;5105560;28;20020;-64
2021/07/05 06:35:48;;;;;;;5.18;1.95;;;;;;;17.40;86.82;98051.59;5105812;28;20020;-64
2021/07/05 06:38:15;;;;;;;8.10;2.17;;;;;;;17.46;86.43;98051.28;5105547;28;20020;-64
2021/07/05 06:40:42;;;;;;;8.50;1.60;;;;;;;17.50;85.23;98051.03;5105503;28;20043;-64
2021/07/05 06:43:08;;;;;;;7.35;1.80;;;;;;;17.49;85.54;98048.47;5105393;28;20207;-64
2021/07/05 06:45:34;;;;;;;8.23;2.10;;;;;;;17.58;85.75;98053.25;5105415;28;20016;-64
2021/07/05 06:47:59;;;;;;;5.05;2.03;;;;;;;17.56;84.90;98053.31;5105372;28;20091;-64
2021/07/05 06:50:26;;;;;;;6.50;1.83;;;;;;;17.60;85.79;98056.69;5105546;28;20337;-64
2021/07/05 06:52:52;;;;;;;4.70;1.90;;;;;;;17.58;85.63;98059.44;5105065;28;20040;-64
2021/07/05 06:55:18;;;;;;;7.70;2.00;;;;;;;17.64;86.27;98063.56;5105207;28;20026;-64
2021/07/05 06:57:43;;;;;;;5.68;1.80;;;;;;;17.62;85.03;98058.31;5105153;28;20016;-64
2021/07/05 07:00:16;;;;;;;7.07;1.95;;;;;;;17.68;86.45;98059.78;5105147;28;20023;-64
2021/07/05 07:02:42;;;;;;;3.45;2.00;;;;;;;17.78;86.34;98060.97;5105366;28;20016;-64
2021/07/05 07:05:10;;;;;;;6.75;1.85;;;;;;;17.78;84.98;98050.34;5105120;28;20069;-64
2021/07/05 07:07:37;;;;;;;4.22;2.03;;;;;;;17.91;85.56;98059.34;5105045;28;20059;-64
2021/07/05 07:10:04;;;;;;;6.78;2.45;;;;;;;17.93;85.08;98060.06;5105051;28;20027;-64
2021/07/05 07:12:30;;;;;;;7.35;2.38;;;;;;;17.90;84.99;98052.25;5104816;28;20095;-64
2021/07/05 07:14:55;;;;;;;8.85;2.00;;;;;;;17.94;85.20;98051.16;5104859;28;20343;-64
2021/07/05 07:17:26;;;;;;;6.80;2.00;;;;;;;17.88;83.76;98052.34;5104800;28;20091;-64
2021/07/05 07:19:51;;;;;;;13.07;2.13;;;;;;;18.03;83.91;98050.63;5103931;28;20024;-64
2021/07/05 07:22:18;;;;;;;8.40;1.60;;;;;;;18.08;83.77;98048.53;5104734;28;20076;-64
2021/07/05 07:24:44;;;;;;;11.23;2.20;;;;;;;18.16;83.60;98048.97;5104961;28;20414;-64
2021/07/05 07:27:09;;;;;;;7.20;2.25;;;;;;;18.22;83.04;98046.78;5104672;28;20028;-64
2021/07/05 07:29:35;;;;;;;4.97;1.70;;;;;;;18.26;83.79;98048.31;5104634;28;20047;-64
2021/07/05 07:32:00;;;;;;;6.40;1.70;;;;;;;18.36;83.57;98045.97;5104498;28;20050;-64
2021/07/05 07:34:25;;;;;;;8.80;2.00;;;;;;;18.33;82.85;98048.81;5104523;28;20020;-64
2021/07/05 07:36:51;;;;;;;6.78;1.88;;;;;;;18.24;83.19;98038.72;5104469;28;20024;-64
2021/07/05 07:39:20;;;;;;;6.53;1.95;;;;;;;18.21;83.36;98044.22;5104471;28;20042;-64
2021/07/05 07:41:46;;;;;;;9.07;2.08;;;;;;;18.24;82.94;98044.03;5104363;28;20024;-64
2021/07/05 07:44:11;;;;;;;3.17;1.80;;;;;;;18.23;83.11;98047.66;5104412;28;20080;-64
2021/07/05 07:46:37;;;;;;;8.88;1.95;;;;;;;18.29;84.87;98041.97;5104374;28;20019;-64
2021/07/05 07:49:03;;;;;;;8.50;2.05;;;;;;;18.36;83.30;98037.97;5104346;28;20077;-64
2021/07/05 07:51:28;;;;;;;8.43;2.00;;;;;;;18.24;82.85;98033.38;5104051;28;20055;-64
2021/07/05 07:53:56;;;;;;;6.60;1.90;;;;;;;18.19;82.54;98033.66;5104215;28;20096;-64
2021/07/05 07:56:21;;;;;;;5.70;2.00;;;;;;;18.20;83.44;98031.84;5104196;28;20027;-64
2021/07/05 07:58:46;;;;;;;4.28;1.80;;;;;;;18.25;82.56;98029.75;5104188;28;20047;-64
2021/07/05 08:01:12;;;;;;;6.70;1.70;;;;;;;18.27;82.86;98038.53;5104189;28;20027;-64
2021/07/05 08:03:37;;;;;;;2.72;1.65;;;;;;;18.15;83.89;98033.91;5104137;28;20020;-64
2021/07/05 08:06:03;;;;;;;7.55;2.00;;;;;;;18.19;84.06;98024.81;5104155;28;20043;-64
2021/07/05 08:08:28;;;;;;;3.72;1.98;;;;;;;18.06;83.43;98024.66;5104126;28;20044;-64
2021/07/05 08:10:54;;;;;;;7.38;1.85;;;;;;;17.98;83.71;98036.72;5104099;28;20319;-64
2021/07/05 08:13:19;;;;;;;6.10;1.75;;;;;;;17.92;84.28;98037.06;5104014;28;20031;-64
2021/07/05 08:15:48;;;;;;;9.25;1.90;;;;;;;17.66;85.92;98022.63;5104105;28;20215;-64
2021/07/05 08:18:13;;;;;;;8.00;1.90;;;;;;;17.62;84.67;98025.53;5104006;28;20092;-64
2021/07/05 08:20:38;;;;;;;10.63;2.00;;;;;;;17.76;84.69;98025.59;5104015;28;20028;-64
2021/07/05 08:23:04;;;;;;;5.20;1.70;;;;;;;17.83;84.91;98021.63;5103987;28;20026;-64
2021/07/05 08:25:29;;;;;;;2.33;1.42;;;;;;;17.95;84.69;98023.59;5103951;28;20056;-64
2021/07/05 08:27:56;;;;;;;2.28;1.33;;;;;;;17.95;85.94;98026.25;5103903;28;20109;-64
2021/07/05 08:30:22;;;;;;;6.07;1.95;;;;;;;17.88;85.08;98030.22;5103909;28;20047;-64
2021/07/05 08:32:49;;;;;;;3.63;2.10;;;;;;;17.85;85.63;98019.75;5107216;28;20031;-64
2021/07/05 08:35:15;;;;;;;3.80;1.52;;;;;;;17.66;85.31;98025.28;5107917;28;20095;-64
2021/07/05 08:37:41;;;;;;;4.20;1.70;;;;;;;17.68;85.70;98017.22;5107895;28;20019;-64
2021/07/05 08:40:08;;;;;;;4.03;1.70;;;;;;;17.56;86.57;98023.22;5107861;28;20024;-64
2021/07/05 08:42:36;;;;;;;3.97;1.40;;;;;;;17.76;86.93;98025.59;5107715;28;20043;-64
2021/07/05 08:45:04;;;;;;;3.75;1.52;;;;;;;17.94;86.15;98020.06;5107759;28;20024;-64
2021/07/05 08:47:35;;;;;;;4.38;1.75;;;;;;;18.52;84.08;98022.81;5107614;28;20095;-65
2021/07/05 08:50:01;;;;;;;2.10;1.38;;;;;;;18.42;83.84;98021.66;5107728;28;20264;-64
2021/07/05 08:52:26;;;;;;;4.57;1.65;;;;;;;18.21;83.35;98013.13;5107412;28;20051;-64
2021/07/05 08:54:52;;;;;;;1.98;1.27;;;;;;;18.22;84.12;98008.66;5107516;28;20031;-64
2021/07/05 08:57:27;;;;;;;3.80;1.55;;;;;;;18.61;84.87;98003.59;5107519;28;20323;-64
2021/07/05 08:59:56;;;;;;;5.80;1.27;;;;;;;18.74;80.61;98008.09;5107494;28;20047;-64
2021/07/05 09:02:23;;;;;;;2.35;1.30;;;;;;;18.85;81.51;97999.41;5107394;28;20020;-64
2021/07/05 09:04:50;;;;;;;4.53;1.35;;;;;;;18.72;81.17;97999.31;5107649;28;20024;-64
2021/07/05 09:07:16;;;;;;;4.13;1.25;;;;;;;18.73;81.20;98005.53;5107293;28;20016;-64
2021/07/05 09:10:00;;;;;;;3.35;1.30;;;;;;;18.72;81.04;98003.78;5107535;28;20024;-64
2021/07/05 09:12:26;;;;;;;2.00;1.25;;;;;;;18.73;81.13;98008.19;5107227;28;20341;-64
2021/07/05 09:15:06;;;;;;;3.05;1.30;;;;;;;18.38;81.70;97999.66;5107476;28;20020;-64
2021/07/05 09:17:33;;;;;;;1.85;1.00;;;;;;;18.13;82.11;98014.53;5107205;28;20227;-64
2021/07/05 09:20:03;;;;;;;1.42;1.30;;;;;;;18.19;82.38;98003.50;5107386;28;20020;-64
2021/07/05 09:22:28;;;;;;;1.90;1.17;;;;;;;18.19;82.99;98003.50;5107026;28;20016;-64
2021/07/05 09:24:57;;;;;;;4.07;1.15;;;;;;;18.09;83.40;97997.00;5106996;28;20030;-64
2021/07/05 09:27:32;;;;;;;3.20;1.15;;;;;;;18.06;83.48;97983.84;5106932;28;20027;-64
2021/07/05 09:30:08;;;;;;;3.05;1.42;;;;;;;18.13;83.21;97994.06;5107208;28;20016;-64
2021/07/05 09:32:34;;;;;;;4.22;1.55;;;;;;;18.25;83.96;97995.13;5106773;28;20095;-64
2021/07/05 09:35:12;;;;;;;3.95;1.30;;;;;;;18.52;81.67;97997.03;5106795;28;20024;-64
2021/07/05 09:37:54;;;;;;;4.60;1.40;;;;;;;18.97;83.56;97993.31;5106803;28;20058;-64
2021/07/05 09:40:20;;;;;;;4.10;1.90;;;;;;;19.11;81.12;97982.66;5106715;28;20024;-65
2021/07/05 09:42:50;;;;;;;3.28;1.38;;;;;;;19.07;80.61;97983.78;5105652;28;20250;-65
2021/07/05 09:45:32;;;;;;;5.40;1.52;;;;;;;19.13;81.31;97978.06;5106688;28;20045;-64
2021/07/05 09:48:11;;;;;;;3.80;1.30;;;;;;;19.10;80.83;97978.25;5105430;28;20028;-64
2021/07/05 09:50:37;;;;;;;2.88;1.17;;;;;;;19.39;79.59;97966.59;5106524;28;20041;-64
2021/07/05 09:53:31;;;;;;;1.83;1.30;;;;;;;19.27;80.62;97964.72;5106243;28;20048;-64
2021/07/05 09:56:21;;;;;;;4.97;1.27;;;;;;;19.30;80.73;97964.50;5106427;28;20319;-64
2021/07/05 09:58:48;;;;;;;3.53;1.05;;;;;;;19.15;80.21;97977.00;5106357;28;20047;-64
2021/07/05 10:01:54;;;;;;;2.35;1.27;;;;;;;19.57;81.20;97962.72;5106315;28;20087;-64
2021/07/05 10:04:27;;;;;;;2.05;1.50;;;;;;;19.50;79.14;97972.09;5105974;28;20028;-64
2021/07/05 10:06:58;;;;;;;1.15;1.02;;;;;;;19.44;81.43;97971.63;5106497;28;20255;-64
2021/07/05 10:09:36;;;;;;;1.52;0.80;;;;;;;19.53;81.27;97966.56;5106113;28;20027;-64
2021/07/05 10:12:24;;;;;;;1.48;1.02;;;;;;;19.39;80.10;97958.56;5106283;28;20027;-64
2021/07/05 10:14:55;;;;;;;2.80;1.40;;;;;;;19.34;82.06;97967.84;5106061;28;20016;-64
2021/07/05 10:17:22;;;;;;;2.10;1.17;;;;;;;19.12;81.43;97960.34;5102591;28;20012;-64
2021/07/05 10:19:47;;;;;;;2.92;1.27;;;;;;;18.90;81.78;97965.31;5086864;28;20024;-64
2021/07/05 10:22:15;;;;;;;3.10;1.20;;;;;;;18.91;82.67;97977.69;5085666;28;20044;-64
2021/07/05 10:24:42;;;;;;;3.17;1.27;;;;;;;18.84;83.98;97971.91;5086393;28;20020;-64
2021/07/05 10:27:11;;;;;;;1.88;1.35;;;;;;;18.65;83.97;97966.00;5085734;28;20020;-64
2021/07/05 10:29:41;;;;;;;2.83;1.20;;;;;;;18.61;83.08;97960.97;5086651;28;20016;-64
2021/07/05 10:32:08;;;;;;;1.95;1.00;;;;;;;18.65;82.72;97959.81;5100898;28;20024;-64
2021/07/05 10:34:35;;;;;;;1.23;1.02;;;;;;;18.36;85.01;97958.06;5104834;28;20084;-64
2021/07/05 10:37:03;;;;;;;5.35;1.27;;;;;;;18.36;85.20;97958.94;5098943;28;20020;-64
2021/07/05 10:39:29;;;;;;;1.50;0.80;;;;;;;18.24;86.17;97957.00;5086478;28;20219;-64
2021/07/05 10:41:55;;;;;;;3.92;1.30;;;;;;;18.22;86.08;97966.03;5086323;28;20044;-65
2021/07/05 10:44:43;;;;;;;1.70;1.23;;;;;;;18.10;86.25;97958.78;5087469;28;20021;-65
2021/07/05 10:47:09;;;;;;;2.58;1.17;;;;;;;18.05;87.14;97959.03;5092709;28;20020;-65
2021/07/05 10:49:35;;;;;;;3.78;1.35;;;;;;;18.00;88.15;97962.94;5104560;28;20048;-65
2021/07/05 10:52:07;;;;;;;1.50;1.40;;;;;;;18.22;89.02;97966.03;5098605;28;20047;-65
2021/07/05 10:54:48;;;;;;;2.05;1.40;;;;;;;18.09;87.86;97960.56;5084932;28;20021;-64
2021/07/05 10:57:16;;;;;;;1.77;1.20;;;;;;;18.18;87.23;97956.50;5099857;28;20016;-64
2021/07/05 10:59:46;;;;;;;2.05;1.00;;;;;;;18.19;87.50;97955.56;5099905;28;20036;-64
2021/07/05 11:02:34;;;;;;;1.85;1.40;;;;;;;18.42;87.10;97957.72;5097649;28;20078;-64
2021/07/05 11:05:00;;;;;;;2.33;1.17;;;;;;;18.50;86.80;97955.41;5088064;28;20044;-64
2021/07/05 11:07:45;;;;;;;0.95;0.80;;;;;;;18.50;86.31;97956.28;5094302;28;20233;-64
2021/07/05 11:10:24;;;;;;;1.63;1.00;;;;;;;18.65;85.80;97944.69;5093217;28;20024;-64
2021/07/05 11:12:59;;;;;;;1.95;1.00;;;;;;;18.61;85.88;97947.63;5092244;28;20024;-64
2021/07/05 11:15:46;;;;;;;2.65;1.05;;;;;;;18.64;85.21;97947.44;5095713;28;20036;-64
2021/07/05 11:18:37;;;;;;;2.03;1.00;;;;;;;18.67;85.45;97941.94;5084565;28;20022;-64
2021/07/05 11:21:23;;;;;;;1.20;1.10;;;;;;;18.88;85.25;97935.22;5085672;28;20035;-64
2021/07/05 11:26:24;;;;;;;2.78;1.00;;;;;;;19.18;84.79;97943.94;5099545;28;20354;-64
2021/07/05 11:29:15;;;;;;;6.10;1.27;;;;;;;19.48;84.55;97943.78;5100966;28;20060;-64
2021/07/05 11:31:47;;;;;;;1.10;1.00;;;;;;;19.61;84.35;97942.88;5098942;28;20134;-64
2021/07/05 11:34:33;;;;;;;1.98;1.10;;;;;;;19.79;83.43;97936.31;5090273;28;20426;-64
2021/07/05 11:37:11;;;;;;;1.65;1.00;;;;;;;19.73;83.99;97936.72;5087777;28;20032;-64